This is the latest recevied weather packets stored in our database for station/object K4AGR-13. If no packets are shown the sender has not sent any weather packets the latest 10 day(s).
| Time | Temp. | Humidity | Pressure | Rain* | Wind** | Luminosity | Snow |
|---|---|---|---|---|---|---|---|
| 1777677010 | 16.67° C | 92% | 1012 hPa | 1.78 mm | - | 6 W/m² | - |
| 1777676709 | 16.67° C | 92% | 1011.7 hPa | 0 mm | - | 10 W/m² | - |
| 1777676406 | 16.67° C | 92% | 1011.4 hPa | 0 mm | - | 28 W/m² | - |
| 1777676103 | 16.67° C | 91% | 1010.9 hPa | 0 mm | - | 31 W/m² | - |
| 1777675799 | 16.67° C | 91% | 1011 hPa | 1.27 mm | - | 33 W/m² | - |
| 1777675497 | 16.67° C | 90% | 1011.7 hPa | 1.27 mm | - | 31 W/m² | - |
| 1777675193 | 16.67° C | 90% | 1012.1 hPa | 0 mm | - | 40 W/m² | - |
| 1777674890 | 16.67° C | 90% | 1012.3 hPa | 0 mm | - | 21 W/m² | - |
| 1777674585 | 16.67° C | 90% | 1012.2 hPa | 0 mm | - | 24 W/m² | - |
| 1777674284 | 16.67° C | 90% | 1011.8 hPa | 0 mm | - | 73 W/m² | - |
| 1777673979 | 16.67° C | 91% | 1012 hPa | 0 mm | - | 82 W/m² | - |
| 1777673676 | 16.67° C | 91% | 1012.1 hPa | 0 mm | - | 56 W/m² | - |
| 1777673374 | 16.67° C | 91% | 1011.3 hPa | 0 mm | - | 76 W/m² | - |
| 1777673072 | 16.67° C | 91% | 1011.9 hPa | 0 mm | - | 55 W/m² | - |
| 1777672767 | 16.67° C | 90% | 1012.3 hPa | 0 mm | - | 31 W/m² | - |
| 1777672464 | 16.67° C | 90% | 1012 hPa | 0 mm | - | 62 W/m² | - |
| 1777672160 | 16.67° C | 90% | 1010.9 hPa | 0 mm | - | 98 W/m² | - |
| 1777671855 | 16.67° C | 91% | 1010.9 hPa | 0 mm | - | 119 W/m² | - |
| 1777671551 | 16.67° C | 90% | 1010.9 hPa | 1.78 mm | - | 122 W/m² | - |
| 1777671248 | 16.67° C | 90% | 1011 hPa | 1.78 mm | - | 120 W/m² | - |
| 1777670943 | 16.67° C | 90% | 1011.2 hPa | 0 mm | - | 61 W/m² | - |
| 1777670640 | 16.67° C | 89% | 1011.7 hPa | 0 mm | - | 43 W/m² | - |
| 1777670337 | 17.22° C | 89% | 1011.7 hPa | 0 mm | - | 48 W/m² | - |
| 1777670034 | 17.22° C | 89% | 1011.4 hPa | 0 mm | - | 77 W/m² | - |
| 1777669732 | 17.22° C | 89% | 1011.3 hPa | 0 mm | - | 86 W/m² | - |
* Rain latest hour (hover to see other rain measurements)
** Current wind speed in m/s (hover to see current wind gust speed)